sensor_id;sensor_type;location;lat;lon;timestamp;pressure;altitude;pressure_sealevel;temperature;humidity
64362;BME280;50685;53.346;-6.296;2023-03-19T00:00:06;101331.34;;;4.88;87.79
64362;BME280;50685;53.346;-6.296;2023-03-19T00:02:32;101340.06;;;4.87;87.18
64362;BME280;50685;53.346;-6.296;2023-03-19T00:04:58;101340.06;;;4.86;86.91
64362;BME280;50685;53.346;-6.296;2023-03-19T00:07:23;101333.00;;;4.83;86.82
64362;BME280;50685;53.346;-6.296;2023-03-19T00:09:48;101335.56;;;4.80;86.46
64362;BME280;50685;53.346;-6.296;2023-03-19T00:12:14;101348.59;;;4.75;86.75
64362;BME280;50685;53.346;-6.296;2023-03-19T00:14:40;101345.94;;;4.74;86.50
64362;BME280;50685;53.346;-6.296;2023-03-19T00:17:06;101355.50;;;4.70;86.71
64362;BME280;50685;53.346;-6.296;2023-03-19T00:19:31;101361.59;;;4.69;86.47
64362;BME280;50685;53.346;-6.296;2023-03-19T00:21:57;101361.59;;;4.69;85.89
64362;BME280;50685;53.346;-6.296;2023-03-19T00:24:23;101358.88;;;4.64;85.29
64362;BME280;50685;53.346;-6.296;2023-03-19T00:26:48;101359.81;;;4.66;85.49
64362;BME280;50685;53.346;-6.296;2023-03-19T00:29:14;101363.25;;;4.64;85.01
64362;BME280;50685;53.346;-6.296;2023-03-19T00:31:40;101358.84;;;4.63;84.64
64362;BME280;50685;53.346;-6.296;2023-03-19T00:34:05;101370.19;;;4.60;84.58
64362;BME280;50685;53.346;-6.296;2023-03-19T00:36:31;101370.19;;;4.60;84.69
64362;BME280;50685;53.346;-6.296;2023-03-19T00:38:56;101365.78;;;4.59;84.16
64362;BME280;50685;53.346;-6.296;2023-03-19T00:41:22;101361.31;;;4.54;84.01
64362;BME280;50685;53.346;-6.296;2023-03-19T00:43:51;101362.13;;;4.51;84.02
64362;BME280;50685;53.346;-6.296;2023-03-19T00:46:16;101357.66;;;4.48;83.49
64362;BME280;50685;53.346;-6.296;2023-03-19T00:48:42;101353.22;;;4.46;83.13
64362;BME280;50685;53.346;-6.296;2023-03-19T00:51:08;101355.00;;;4.45;83.22
64362;BME280;50685;53.346;-6.296;2023-03-19T00:53:37;101352.34;;;4.44;82.63
64362;BME280;50685;53.346;-6.296;2023-03-19T00:56:03;101366.34;;;4.44;82.51
64362;BME280;50685;53.346;-6.296;2023-03-19T00:58:28;101361.91;;;4.42;82.61
64362;BME280;50685;53.346;-6.296;2023-03-19T01:00:54;101359.22;;;4.39;82.38
64362;BME280;50685;53.346;-6.296;2023-03-19T01:03:19;101354.75;;;4.34;82.50
64362;BME280;50685;53.346;-6.296;2023-03-19T01:05:48;101359.97;;;4.31;82.33
64362;BME280;50685;53.346;-6.296;2023-03-19T01:08:14;101373.94;;;4.30;82.54
64362;BME280;50685;53.346;-6.296;2023-03-19T01:10:40;101380.97;;;4.31;82.10
64362;BME280;50685;53.346;-6.296;2023-03-19T01:13:05;101382.69;;;4.31;81.60
64362;BME280;50685;53.346;-6.296;2023-03-19T01:15:34;101378.28;;;4.30;81.06
64362;BME280;50685;53.346;-6.296;2023-03-19T01:17:59;101374.81;;;4.31;80.43
64362;BME280;50685;53.346;-6.296;2023-03-19T01:20:25;101375.72;;;4.33;80.43
64362;BME280;50685;53.346;-6.296;2023-03-19T01:22:51;101375.75;;;4.34;80.42
64362;BME280;50685;53.346;-6.296;2023-03-19T01:25:16;101375.72;;;4.33;80.03
64362;BME280;50685;53.346;-6.296;2023-03-19T01:27:42;101382.75;;;4.34;80.38
64362;BME280;50685;53.346;-6.296;2023-03-19T01:30:07;101391.47;;;4.31;79.68
64362;BME280;50685;53.346;-6.296;2023-03-19T01:32:33;101397.50;;;4.29;79.98
64362;BME280;50685;53.346;-6.296;2023-03-19T01:34:58;101399.22;;;4.27;79.94
64362;BME280;50685;53.346;-6.296;2023-03-19T01:37:24;101404.47;;;4.25;79.94
64362;BME280;50685;53.346;-6.296;2023-03-19T01:39:49;101406.13;;;4.22;80.01
64362;BME280;50685;53.346;-6.296;2023-03-19T01:42:15;101411.31;;;4.20;80.28
64362;BME280;50685;53.346;-6.296;2023-03-19T01:44:41;101411.22;;;4.15;80.58
64362;BME280;50685;53.346;-6.296;2023-03-19T01:47:10;101429.50;;;4.12;80.79
64362;BME280;50685;53.346;-6.296;2023-03-19T01:49:38;101422.47;;;4.10;80.60
64362;BME280;50685;53.346;-6.296;2023-03-19T01:52:04;101419.72;;;4.05;80.53
64362;BME280;50685;53.346;-6.296;2023-03-19T01:54:31;101413.59;;;4.05;80.68
64362;BME280;50685;53.346;-6.296;2023-03-19T01:56:57;101413.53;;;4.03;80.39
64362;BME280;50685;53.346;-6.296;2023-03-19T01:59:29;101417.94;;;4.04;80.58
64362;BME280;50685;53.346;-6.296;2023-03-19T02:02:37;101410.97;;;4.05;80.25
64362;BME280;50685;53.346;-6.296;2023-03-19T02:04:44;101417.09;;;4.05;80.28
64362;BME280;50685;53.346;-6.296;2023-03-19T02:07:11;101412.69;;;4.04;79.54
64362;BME280;50685;53.346;-6.296;2023-03-19T02:09:37;101403.09;;;4.05;79.61
64362;BME280;50685;53.346;-6.296;2023-03-19T02:12:04;101406.56;;;4.04;79.59
64362;BME280;50685;53.346;-6.296;2023-03-19T02:14:30;101406.47;;;4.00;79.78
64362;BME280;50685;53.346;-6.296;2023-03-19T02:16:55;101406.44;;;3.99;79.71
64362;BME280;50685;53.346;-6.296;2023-03-19T02:19:23;101414.25;;;3.96;79.70
64362;BME280;50685;53.346;-6.296;2023-03-19T02:21:50;101419.44;;;3.94;79.48
64362;BME280;50685;53.346;-6.296;2023-03-19T02:24:19;101415.94;;;3.94;79.81
64362;BME280;50685;53.346;-6.296;2023-03-19T02:26:47;101420.22;;;3.90;79.34
64362;BME280;50685;53.346;-6.296;2023-03-19T02:29:12;101433.34;;;3.90;79.56
64362;BME280;50685;53.346;-6.296;2023-03-19T02:31:38;101425.44;;;3.89;79.45
64362;BME280;50685;53.346;-6.296;2023-03-19T02:34:04;101437.59;;;3.85;79.68
64362;BME280;50685;53.346;-6.296;2023-03-19T02:36:50;101437.50;;;3.82;79.48
64362;BME280;50685;53.346;-6.296;2023-03-19T02:39:23;101425.25;;;3.81;79.66
64362;BME280;50685;53.346;-6.296;2023-03-19T02:41:49;101431.41;;;3.81;79.81
64362;BME280;50685;53.346;-6.296;2023-03-19T02:44:16;101430.56;;;3.82;79.23
64362;BME280;50685;53.346;-6.296;2023-03-19T02:46:44;101429.78;;;3.88;79.79
64362;BME280;50685;53.346;-6.296;2023-03-19T02:49:09;101428.94;;;3.89;79.78
64362;BME280;50685;53.346;-6.296;2023-03-19T02:51:35;101423.69;;;3.89;79.56
64362;BME280;50685;53.346;-6.296;2023-03-19T02:54:01;101422.84;;;3.90;79.42
64362;BME280;50685;53.346;-6.296;2023-03-19T02:56:27;101417.72;;;3.95;79.71
64362;BME280;50685;53.346;-6.296;2023-03-19T02:58:52;101420.38;;;3.96;79.25
64362;BME280;50685;53.346;-6.296;2023-03-19T03:01:18;101416.88;;;3.96;79.24
64362;BME280;50685;53.346;-6.296;2023-03-19T03:03:43;101419.41;;;3.93;78.59
64362;BME280;50685;53.346;-6.296;2023-03-19T03:06:08;101428.13;;;3.92;79.07
64362;BME280;50685;53.346;-6.296;2023-03-19T03:08:34;101430.69;;;3.89;79.11
64362;BME280;50685;53.346;-6.296;2023-03-19T03:11:00;101433.25;;;3.87;78.90
64362;BME280;50685;53.346;-6.296;2023-03-19T03:13:25;101429.75;;;3.86;79.29
64362;BME280;50685;53.346;-6.296;2023-03-19T03:15:52;101426.22;;;3.84;79.04
64362;BME280;50685;53.346;-6.296;2023-03-19T03:18:17;101427.13;;;3.85;79.39
64362;BME280;50685;53.346;-6.296;2023-03-19T03:20:43;101425.31;;;3.82;79.22
64362;BME280;50685;53.346;-6.296;2023-03-19T03:23:09;101418.19;;;3.78;79.37
64362;BME280;50685;53.346;-6.296;2023-03-19T03:25:35;101428.69;;;3.78;79.41
64362;BME280;50685;53.346;-6.296;2023-03-19T03:28:00;101427.78;;;3.76;79.95
64362;BME280;50685;53.346;-6.296;2023-03-19T03:30:26;101433.88;;;3.75;80.06
64362;BME280;50685;53.346;-6.296;2023-03-19T03:32:51;101435.56;;;3.75;79.82
64362;BME280;50685;53.346;-6.296;2023-03-19T03:35:17;101431.16;;;3.72;80.03
64362;BME280;50685;53.346;-6.296;2023-03-19T03:37:46;101436.31;;;3.69;79.97
64362;BME280;50685;53.346;-6.296;2023-03-19T03:40:11;101436.31;;;3.69;80.29
64362;BME280;50685;53.346;-6.296;2023-03-19T03:42:40;101441.56;;;3.69;80.46
64362;BME280;50685;53.346;-6.296;2023-03-19T03:45:05;101438.88;;;3.67;80.27
64362;BME280;50685;53.346;-6.296;2023-03-19T03:47:31;101436.31;;;3.69;80.38
64362;BME280;50685;53.346;-6.296;2023-03-19T03:49:56;101435.31;;;3.64;80.32
64362;BME280;50685;53.346;-6.296;2023-03-19T03:52:21;101444.03;;;3.63;80.89
64362;BME280;50685;53.346;-6.296;2023-03-19T03:54:47;101452.72;;;3.60;80.74
64362;BME280;50685;53.346;-6.296;2023-03-19T03:57:13;101450.91;;;3.58;80.86
64362;BME280;50685;53.346;-6.296;2023-03-19T03:59:38;101450.84;;;3.56;81.00
64362;BME280;50685;53.346;-6.296;2023-03-19T04:02:03;101454.28;;;3.53;80.60
64362;BME280;50685;53.346;-6.296;2023-03-19T04:04:30;101462.13;;;3.53;80.70
64362;BME280;50685;53.346;-6.296;2023-03-19T04:06:55;101455.88;;;3.48;80.85
64362;BME280;50685;53.346;-6.296;2023-03-19T04:09:21;101458.47;;;3.47;80.98
64362;BME280;50685;53.346;-6.296;2023-03-19T04:11:47;101451.41;;;3.44;80.98
64362;BME280;50685;53.346;-6.296;2023-03-19T04:14:13;101461.84;;;3.43;81.21
64362;BME280;50685;53.346;-6.296;2023-03-19T04:16:38;101462.69;;;3.42;81.45
64362;BME280;50685;53.346;-6.296;2023-03-19T04:19:03;101462.69;;;3.42;81.20
64362;BME280;50685;53.346;-6.296;2023-03-19T04:21:29;101463.59;;;3.42;81.45
64362;BME280;50685;53.346;-6.296;2023-03-19T04:23:54;101454.78;;;3.40;80.96
64362;BME280;50685;53.346;-6.296;2023-03-19T04:26:19;101460.03;;;3.40;80.92
64362;BME280;50685;53.346;-6.296;2023-03-19T04:28:45;101464.44;;;3.41;81.37
64362;BME280;50685;53.346;-6.296;2023-03-19T04:31:10;101456.56;;;3.41;81.22
64362;BME280;50685;53.346;-6.296;2023-03-19T04:33:36;101447.75;;;3.39;81.39
64362;BME280;50685;53.346;-6.296;2023-03-19T04:36:02;101453.81;;;3.36;81.16
64362;BME280;50685;53.346;-6.296;2023-03-19T04:38:27;101459.00;;;3.33;81.58
64362;BME280;50685;53.346;-6.296;2023-03-19T04:40:53;101454.47;;;3.29;81.56
64362;BME280;50685;53.346;-6.296;2023-03-19T04:43:19;101471.97;;;3.29;81.83
64362;BME280;50685;53.346;-6.296;2023-03-19T04:45:44;101467.50;;;3.25;81.96
64362;BME280;50685;53.346;-6.296;2023-03-19T04:48:10;101479.69;;;3.24;81.66
64362;BME280;50685;53.346;-6.296;2023-03-19T04:50:36;101476.94;;;3.19;81.71
64362;BME280;50685;53.346;-6.296;2023-03-19T04:53:01;101468.19;;;3.19;81.74
64362;BME280;50685;53.346;-6.296;2023-03-19T04:55:26;101464.69;;;3.18;81.94
64362;BME280;50685;53.346;-6.296;2023-03-19T04:57:52;101467.31;;;3.18;82.23
64362;BME280;50685;53.346;-6.296;2023-03-19T05:00:17;101474.19;;;3.15;82.19
64362;BME280;50685;53.346;-6.296;2023-03-19T05:02:42;101470.63;;;3.13;82.21
64362;BME280;50685;53.346;-6.296;2023-03-19T05:05:08;101482.00;;;3.13;81.99
64362;BME280;50685;53.346;-6.296;2023-03-19T05:07:35;101479.38;;;3.13;82.32
64362;BME280;50685;53.346;-6.296;2023-03-19T05:10:00;101479.34;;;3.12;81.78
64362;BME280;50685;53.346;-6.296;2023-03-19T05:12:25;101485.38;;;3.09;82.33
64362;BME280;50685;53.346;-6.296;2023-03-19T05:14:51;101482.72;;;3.08;82.42
64362;BME280;50685;53.346;-6.296;2023-03-19T05:17:16;101487.06;;;3.07;82.41
64362;BME280;50685;53.346;-6.296;2023-03-19T05:19:42;101482.72;;;3.08;82.05
64362;BME280;50685;53.346;-6.296;2023-03-19T05:22:07;101480.19;;;3.11;82.69
64362;BME280;50685;53.346;-6.296;2023-03-19T05:24:33;101474.91;;;3.09;82.00
64362;BME280;50685;53.346;-6.296;2023-03-19T05:26:58;101489.75;;;3.09;82.42
64362;BME280;50685;53.346;-6.296;2023-03-19T05:29:24;101492.31;;;3.07;81.88
64362;BME280;50685;53.346;-6.296;2023-03-19T05:31:50;101489.69;;;3.07;82.33
64362;BME280;50685;53.346;-6.296;2023-03-19T05:34:16;101480.09;;;3.08;82.25
64362;BME280;50685;53.346;-6.296;2023-03-19T05:36:41;101494.00;;;3.05;82.39
64362;BME280;50685;53.346;-6.296;2023-03-19T05:39:06;101492.22;;;3.04;82.01
64362;BME280;50685;53.346;-6.296;2023-03-19T05:41:32;101486.09;;;3.03;82.07
64362;BME280;50685;53.346;-6.296;2023-03-19T05:43:57;101488.69;;;3.03;82.12
64362;BME280;50685;53.346;-6.296;2023-03-19T05:46:22;101493.91;;;3.02;81.67
64362;BME280;50685;53.346;-6.296;2023-03-19T05:48:48;101492.19;;;3.02;82.13
64362;BME280;50685;53.346;-6.296;2023-03-19T05:51:14;101501.78;;;3.02;81.71
64362;BME280;50685;53.346;-6.296;2023-03-19T05:53:39;101506.16;;;3.03;81.68
64362;BME280;50685;53.346;-6.296;2023-03-19T05:56:05;101502.72;;;3.04;81.71
64362;BME280;50685;53.346;-6.296;2023-03-19T05:58:30;101506.16;;;3.03;81.90
64362;BME280;50685;53.346;-6.296;2023-03-19T06:00:56;101504.34;;;3.00;81.85
64362;BME280;50685;53.346;-6.296;2023-03-19T06:03:22;101505.19;;;2.99;82.01
64362;BME280;50685;53.346;-6.296;2023-03-19T06:05:48;101510.38;;;2.98;82.05
64362;BME280;50685;53.346;-6.296;2023-03-19T06:08:13;101512.06;;;2.96;82.15
64362;BME280;50685;53.346;-6.296;2023-03-19T06:10:39;101518.22;;;2.96;81.87
64362;BME280;50685;53.346;-6.296;2023-03-19T06:13:04;101525.16;;;2.96;82.04
64362;BME280;50685;53.346;-6.296;2023-03-19T06:15:29;101529.53;;;2.95;82.00
64362;BME280;50685;53.346;-6.296;2023-03-19T06:17:55;101527.78;;;2.96;81.66
64362;BME280;50685;53.346;-6.296;2023-03-19T06:20:20;101526.91;;;2.95;81.90
64362;BME280;50685;53.346;-6.296;2023-03-19T06:22:46;101520.75;;;2.95;81.84
64362;BME280;50685;53.346;-6.296;2023-03-19T06:25:11;101527.75;;;2.94;82.00
64362;BME280;50685;53.346;-6.296;2023-03-19T06:27:37;101523.47;;;2.96;81.95
64362;BME280;50685;53.346;-6.296;2023-03-19T06:30:02;101531.34;;;2.98;81.48
64362;BME280;50685;53.346;-6.296;2023-03-19T06:32:28;101534.97;;;3.01;81.19
64362;BME280;50685;53.346;-6.296;2023-03-19T06:34:53;101543.72;;;3.03;81.42
64362;BME280;50685;53.346;-6.296;2023-03-19T06:37:20;101540.34;;;3.06;81.11
64362;BME280;50685;53.346;-6.296;2023-03-19T06:39:45;101538.59;;;3.07;80.83
64362;BME280;50685;53.346;-6.296;2023-03-19T06:42:11;101534.31;;;3.09;80.91
64362;BME280;50685;53.346;-6.296;2023-03-19T06:44:37;101530.97;;;3.14;80.33
64362;BME280;50685;53.346;-6.296;2023-03-19T06:47:02;101539.84;;;3.19;79.81
64362;BME280;50685;53.346;-6.296;2023-03-19T06:49:28;101547.88;;;3.26;79.69
64362;BME280;50685;53.346;-6.296;2023-03-19T06:51:53;101557.59;;;3.28;79.63
64362;BME280;50685;53.346;-6.296;2023-03-19T06:54:18;101558.66;;;3.35;79.39
64362;BME280;50685;53.346;-6.296;2023-03-19T06:56:43;101563.31;;;3.45;79.13
64362;BME280;50685;53.346;-6.296;2023-03-19T06:59:09;101559.19;;;3.53;78.86
64362;BME280;50685;53.346;-6.296;2023-03-19T07:01:38;101549.81;;;3.62;78.39
64362;BME280;50685;53.346;-6.296;2023-03-19T07:04:03;101558.03;;;3.76;77.86
64362;BME280;50685;53.346;-6.296;2023-03-19T07:06:28;101568.19;;;3.95;77.33
64362;BME280;50685;53.346;-6.296;2023-03-19T07:08:54;101566.06;;;4.14;76.97
64362;BME280;50685;53.346;-6.296;2023-03-19T07:11:20;101572.72;;;4.34;76.77
64362;BME280;50685;53.346;-6.296;2023-03-19T07:13:45;101564.25;;;4.46;75.79
64362;BME280;50685;53.346;-6.296;2023-03-19T07:16:11;101575.09;;;4.60;76.09
64362;BME280;50685;53.346;-6.296;2023-03-19T07:18:36;101573.59;;;4.72;74.95
64362;BME280;50685;53.346;-6.296;2023-03-19T07:21:02;101570.50;;;4.88;73.91
64362;BME280;50685;53.346;-6.296;2023-03-19T07:23:27;101576.19;;;5.07;73.67
64362;BME280;50685;53.346;-6.296;2023-03-19T07:25:52;101578.28;;;5.23;73.04
64362;BME280;50685;53.346;-6.296;2023-03-19T07:28:18;101573.34;;;5.37;72.59
64362;BME280;50685;53.346;-6.296;2023-03-19T07:30:43;101568.25;;;5.46;72.09
64362;BME280;50685;53.346;-6.296;2023-03-19T07:33:08;101559.59;;;5.52;70.48
64362;BME280;50685;53.346;-6.296;2023-03-19T07:35:34;101574.66;;;5.59;70.65
64362;BME280;50685;53.346;-6.296;2023-03-19T07:38:00;101573.84;;;5.62;70.93
64362;BME280;50685;53.346;-6.296;2023-03-19T07:40:26;101579.28;;;5.71;68.83
64362;BME280;50685;53.346;-6.296;2023-03-19T07:42:52;101576.13;;;5.91;70.33
64362;BME280;50685;53.346;-6.296;2023-03-19T07:45:17;101583.47;;;6.06;68.43
64362;BME280;50685;53.346;-6.296;2023-03-19T07:47:42;101586.50;;;6.27;70.42
64362;BME280;50685;53.346;-6.296;2023-03-19T07:50:08;101587.66;;;6.43;69.21
64362;BME280;50685;53.346;-6.296;2023-03-19T07:52:33;101578.28;;;6.61;68.72
64362;BME280;50685;53.346;-6.296;2023-03-19T07:54:59;101590.78;;;6.73;68.00
64362;BME280;50685;53.346;-6.296;2023-03-19T07:57:25;101588.38;;;6.88;67.93
64362;BME280;50685;53.346;-6.296;2023-03-19T07:59:51;101585.06;;;7.02;66.58
64362;BME280;50685;53.346;-6.296;2023-03-19T08:02:16;101579.91;;;7.13;66.36
64362;BME280;50685;53.346;-6.296;2023-03-19T08:04:42;101578.28;;;7.21;66.48
64362;BME280;50685;53.346;-6.296;2023-03-19T08:07:07;101580.16;;;7.28;64.91
64362;BME280;50685;53.346;-6.296;2023-03-19T08:09:35;101572.47;;;7.45;65.61
64362;BME280;50685;53.346;-6.296;2023-03-19T08:12:01;101576.31;;;7.72;63.74
64362;BME280;50685;53.346;-6.296;2023-03-19T08:14:26;101582.59;;;7.85;63.77
64362;BME280;50685;53.346;-6.296;2023-03-19T08:16:52;101581.94;;;8.04;63.34
64362;BME280;50685;53.346;-6.296;2023-03-19T08:19:17;101581.34;;;8.35;63.21
64362;BME280;50685;53.346;-6.296;2023-03-19T08:21:42;101583.41;;;8.67;59.52
64362;BME280;50685;53.346;-6.296;2023-03-19T08:24:08;101592.34;;;8.83;61.13
64362;BME280;50685;53.346;-6.296;2023-03-19T08:26:33;101584.41;;;8.84;58.72
64362;BME280;50685;53.346;-6.296;2023-03-19T08:28:58;101578.44;;;9.13;60.60
64362;BME280;50685;53.346;-6.296;2023-03-19T08:31:24;101562.69;;;9.37;58.62
64362;BME280;50685;53.346;-6.296;2023-03-19T08:33:49;101567.19;;;9.65;57.83
64362;BME280;50685;53.346;-6.296;2023-03-19T08:36:15;101571.63;;;9.73;58.94
64362;BME280;50685;53.346;-6.296;2023-03-19T08:38:41;101582.28;;;9.88;59.19
64362;BME280;50685;53.346;-6.296;2023-03-19T08:41:06;101578.81;;;10.14;58.80
64362;BME280;50685;53.346;-6.296;2023-03-19T08:43:32;101583.25;;;10.29;54.79
64362;BME280;50685;53.346;-6.296;2023-03-19T08:45:58;101585.06;;;10.50;55.83
64362;BME280;50685;53.346;-6.296;2023-03-19T08:48:24;101577.97;;;10.55;55.34
64362;BME280;50685;53.346;-6.296;2023-03-19T08:50:57;101585.06;;;10.72;55.08
64362;BME280;50685;53.346;-6.296;2023-03-19T08:53:23;101587.69;;;10.84;54.51
64362;BME280;50685;53.346;-6.296;2023-03-19T08:55:52;101592.13;;;10.76;49.43
64362;BME280;50685;53.346;-6.296;2023-03-19T08:58:17;101588.56;;;10.74;52.15
64362;BME280;50685;53.346;-6.296;2023-03-19T09:00:43;101585.91;;;10.80;53.49
64362;BME280;50685;53.346;-6.296;2023-03-19T09:03:08;101576.19;;;10.93;51.43
64362;BME280;50685;53.346;-6.296;2023-03-19T09:05:34;101577.84;;;11.33;50.59
64362;BME280;50685;53.346;-6.296;2023-03-19T09:08:00;101587.47;;;11.65;50.94
64362;BME280;50685;53.346;-6.296;2023-03-19T09:10:25;101578.47;;;12.00;48.73
64362;BME280;50685;53.346;-6.296;2023-03-19T09:12:50;101576.44;;;12.34;46.47
64362;BME280;50685;53.346;-6.296;2023-03-19T09:15:16;101582.50;;;12.52;47.27
64362;BME280;50685;53.346;-6.296;2023-03-19T09:17:41;101576.22;;;12.61;46.59
64362;BME280;50685;53.346;-6.296;2023-03-19T09:20:08;101573.38;;;12.82;46.57
64362;BME280;50685;53.346;-6.296;2023-03-19T09:22:34;101579.47;;;12.95;44.68
64362;BME280;50685;53.346;-6.296;2023-03-19T09:24:59;101581.97;;;13.11;43.37
64362;BME280;50685;53.346;-6.296;2023-03-19T09:27:25;101577.31;;;13.28;44.18
64362;BME280;50685;53.346;-6.296;2023-03-19T09:29:50;101567.25;;;13.57;42.95
64362;BME280;50685;53.346;-6.296;2023-03-19T09:32:15;101569.66;;;13.77;44.06
64362;BME280;50685;53.346;-6.296;2023-03-19T09:34:41;101573.50;;;13.56;42.31
64362;BME280;50685;53.346;-6.296;2023-03-19T09:37:06;101562.03;;;13.49;43.31
64362;BME280;50685;53.346;-6.296;2023-03-19T09:39:32;101568.34;;;13.40;44.04
64362;BME280;50685;53.346;-6.296;2023-03-19T09:42:07;101569.28;;;13.38;43.51
64362;BME280;50685;53.346;-6.296;2023-03-19T09:44:39;101571.13;;;13.28;44.32
64362;BME280;50685;53.346;-6.296;2023-03-19T09:49:55;101572.50;;;12.80;43.23
64362;BME280;50685;53.346;-6.296;2023-03-19T09:54:50;101567.53;;;12.42;45.96
64362;BME280;50685;53.346;-6.296;2023-03-19T09:57:17;101570.34;;;12.20;45.64
64362;BME280;50685;53.346;-6.296;2023-03-19T09:59:42;101575.81;;;11.94;46.60
64362;BME280;50685;53.346;-6.296;2023-03-19T10:07:37;101575.97;;;11.63;47.41
64362;BME280;50685;53.346;-6.296;2023-03-19T10:10:18;101579.47;;;11.69;47.50
64362;BME280;50685;53.346;-6.296;2023-03-19T10:15:31;101580.47;;;11.48;47.81
64362;BME280;50685;53.346;-6.296;2023-03-19T10:18:02;101573.38;;;11.43;47.13
64362;BME280;50685;53.346;-6.296;2023-03-19T10:25:39;101573.22;;;11.78;48.01
64362;BME280;50685;53.346;-6.296;2023-03-19T10:28:13;101578.47;;;11.98;48.56
64362;BME280;50685;53.346;-6.296;2023-03-19T10:30:40;101592.63;;;11.94;45.65
64362;BME280;50685;53.346;-6.296;2023-03-19T10:33:22;101573.16;;;11.92;46.93
64362;BME280;50685;53.346;-6.296;2023-03-19T10:35:49;101556.41;;;11.74;46.16
64362;BME280;50685;53.346;-6.296;2023-03-19T10:38:18;101566.19;;;11.72;47.57
64362;BME280;50685;53.346;-6.296;2023-03-19T10:40:47;101571.47;;;11.71;46.97
64362;BME280;50685;53.346;-6.296;2023-03-19T10:45:59;101562.72;;;11.56;46.82
64362;BME280;50685;53.346;-6.296;2023-03-19T10:48:25;101551.19;;;11.57;48.56
64362;BME280;50685;53.346;-6.296;2023-03-19T10:51:00;101559.19;;;11.54;47.87
64362;BME280;50685;53.346;-6.296;2023-03-19T10:53:32;101568.06;;;11.44;47.84
64362;BME280;50685;53.346;-6.296;2023-03-19T10:56:03;101581.34;;;11.43;47.08
64362;BME280;50685;53.346;-6.296;2023-03-19T10:58:29;101584.00;;;11.38;48.67
64362;BME280;50685;53.346;-6.296;2023-03-19T11:01:04;101578.75;;;11.25;48.75
64362;BME280;50685;53.346;-6.296;2023-03-19T11:06:38;101583.16;;;11.28;48.78
64362;BME280;50685;53.346;-6.296;2023-03-19T11:08:54;101573.41;;;11.35;48.64
64362;BME280;50685;53.346;-6.296;2023-03-19T11:12:04;101575.19;;;11.31;47.39
64362;BME280;50685;53.346;-6.296;2023-03-19T11:14:32;101579.66;;;11.18;48.22
64362;BME280;50685;53.346;-6.296;2023-03-19T11:17:01;101574.34;;;11.17;48.92
64362;BME280;50685;53.346;-6.296;2023-03-19T11:19:31;101572.59;;;11.14;48.71
64362;BME280;50685;53.346;-6.296;2023-03-19T11:22:00;101568.16;;;11.22;48.36
64362;BME280;50685;53.346;-6.296;2023-03-19T11:24:27;101569.84;;;11.34;48.49
64362;BME280;50685;53.346;-6.296;2023-03-19T11:26:55;101575.19;;;11.33;48.14
64362;BME280;50685;53.346;-6.296;2023-03-19T11:29:21;101568.06;;;11.43;48.36
64362;BME280;50685;53.346;-6.296;2023-03-19T11:31:53;101556.50;;;11.61;48.73
64362;BME280;50685;53.346;-6.296;2023-03-19T11:36:57;101533.28;;;11.92;46.26
64362;BME280;50685;53.346;-6.296;2023-03-19T11:39:32;101536.75;;;12.07;44.93
64362;BME280;50685;53.346;-6.296;2023-03-19T11:47:09;101525.06;;;12.28;46.19
64362;BME280;50685;53.346;-6.296;2023-03-19T11:52:24;101514.41;;;12.31;45.35
64362;BME280;50685;53.346;-6.296;2023-03-19T11:57:42;101527.50;;;12.54;44.94
64362;BME280;50685;53.346;-6.296;2023-03-19T12:02:56;101511.97;;;12.99;44.45
64362;BME280;50685;53.346;-6.296;2023-03-19T12:05:31;101508.16;;;13.24;44.08
64362;BME280;50685;53.346;-6.296;2023-03-19T12:21:10;101495.16;;;12.93;44.60
64362;BME280;50685;53.346;-6.296;2023-03-19T12:26:20;101494.47;;;12.77;43.32
64362;BME280;50685;53.346;-6.296;2023-03-19T12:28:58;101487.56;;;12.57;43.96
64362;BME280;50685;53.346;-6.296;2023-03-19T12:31:31;101494.66;;;12.57;45.14
64362;BME280;50685;53.346;-6.296;2023-03-19T12:36:28;101505.63;;;12.24;44.80
64362;BME280;50685;53.346;-6.296;2023-03-19T12:38:57;101502.16;;;12.11;45.42
64362;BME280;50685;53.346;-6.296;2023-03-19T12:41:26;101502.25;;;11.94;45.27
64362;BME280;50685;53.346;-6.296;2023-03-19T12:48:49;101511.38;;;11.48;46.81
64362;BME280;50685;53.346;-6.296;2023-03-19T12:51:16;101499.09;;;11.25;46.51
64362;BME280;50685;53.346;-6.296;2023-03-19T12:56:33;101496.50;;;11.16;47.22
64362;BME280;50685;53.346;-6.296;2023-03-19T12:59:10;101495.56;;;11.20;48.05
64362;BME280;50685;53.346;-6.296;2023-03-19T13:01:39;101492.03;;;11.23;48.20
64362;BME280;50685;53.346;-6.296;2023-03-19T13:04:11;101492.00;;;11.28;48.69
64362;BME280;50685;53.346;-6.296;2023-03-19T13:06:40;101492.84;;;11.39;48.56
64362;BME280;50685;53.346;-6.296;2023-03-19T13:09:28;101485.72;;;11.44;48.29
64362;BME280;50685;53.346;-6.296;2023-03-19T13:11:57;101486.63;;;11.40;47.32
64362;BME280;50685;53.346;-6.296;2023-03-19T13:22:05;101497.38;;;11.12;48.82
64362;BME280;50685;53.346;-6.296;2023-03-19T13:24:34;101487.63;;;11.14;49.72
64362;BME280;50685;53.346;-6.296;2023-03-19T13:27:02;101476.13;;;11.15;50.33
64362;BME280;50685;53.346;-6.296;2023-03-19T13:29:28;101472.56;;;11.22;50.22
64362;BME280;50685;53.346;-6.296;2023-03-19T13:32:03;101473.44;;;11.24;50.07
64362;BME280;50685;53.346;-6.296;2023-03-19T13:34:36;101453.06;;;11.27;50.33
64362;BME280;50685;53.346;-6.296;2023-03-19T13:39:31;101467.13;;;11.43;49.96
64362;BME280;50685;53.346;-6.296;2023-03-19T13:44:46;101460.97;;;11.39;48.17
64362;BME280;50685;53.346;-6.296;2023-03-19T13:57:44;101459.50;;;10.68;49.62
64362;BME280;50685;53.346;-6.296;2023-03-19T14:03:18;101461.28;;;10.48;50.88
64362;BME280;50685;53.346;-6.296;2023-03-19T14:05:44;101453.31;;;10.55;51.26
64362;BME280;50685;53.346;-6.296;2023-03-19T14:08:14;101454.22;;;10.47;51.04
64362;BME280;50685;53.346;-6.296;2023-03-19T14:10:54;101453.34;;;10.40;51.36
64362;BME280;50685;53.346;-6.296;2023-03-19T14:13:25;101445.34;;;10.32;52.39
64362;BME280;50685;53.346;-6.296;2023-03-19T14:15:52;101437.44;;;10.27;53.80
64362;BME280;50685;53.346;-6.296;2023-03-19T14:18:25;101450.69;;;10.24;54.53